Time;durP1;ratioP1;P1;durP2;ratioP2;P2;SDS_P1;SDS_P2;PMS_P1;PMS_P2;Temp;Humidity;BMP_temperature;BMP_pressure;BME280_temperature;BME280_humidity;BME280_pressure;Samples;Min_cycle;Max_cycle;Signal;HPM_P1;HPM_P2
2022/05/19 00:00:05;;;;;;;3.23;2.20;;;18.30;73.50;;;;;;7359517;19;20376;-55
2022/05/19 00:02:41;;;;;;;6.13;2.50;;;18.40;72.80;;;;;;7359499;19;20401;-55
2022/05/19 00:05:11;;;;;;;4.43;2.57;;;18.20;73.70;;;;;;7341341;19;20379;-57
2022/05/19 00:07:43;;;;;;;3.50;2.20;;;18.20;73.40;;;;;;7363946;19;20975;-54
2022/05/19 00:10:13;;;;;;;7.43;2.20;;;18.20;74.30;;;;;;7376383;19;20485;-55
2022/05/19 00:12:45;;;;;;;3.07;2.77;;;18.20;74.00;;;;;;7381071;19;20384;-55
2022/05/19 00:15:17;;;;;;;2.53;1.83;;;18.20;74.80;;;;;;7359774;19;20906;-54
2022/05/19 00:17:48;;;;;;;3.30;2.07;;;18.10;74.90;;;;;;7377979;19;20743;-56
2022/05/19 00:20:20;;;;;;;3.30;2.10;;;18.00;74.90;;;;;;7367300;19;20383;-54
2022/05/19 00:22:52;;;;;;;5.00;2.13;;;18.00;75.60;;;;;;7370475;19;20380;-53
2022/05/19 00:25:22;;;;;;;6.93;2.60;;;18.10;75.20;;;;;;7372418;19;20427;-54
2022/05/19 00:27:51;;;;;;;4.23;2.40;;;18.20;74.50;;;;;;7374730;19;20375;-56
2022/05/19 00:30:21;;;;;;;3.00;2.23;;;18.20;74.20;;;;;;7368003;19;20376;-54
2022/05/19 00:32:53;;;;;;;2.73;2.53;;;18.20;74.30;;;;;;7366477;19;20840;-55
2022/05/19 00:35:25;;;;;;;2.87;2.27;;;18.00;74.90;;;;;;7375460;19;20380;-56
2022/05/19 00:37:59;;;;;;;3.03;2.13;;;18.00;75.00;;;;;;7371312;19;20369;-55
2022/05/19 00:40:28;;;;;;;3.93;2.80;;;18.10;74.10;;;;;;7371165;19;20829;-54
2022/05/19 00:42:58;;;;;;;2.50;2.23;;;18.10;74.00;;;;;;7366827;19;21273;-55
2022/05/19 00:45:36;;;;;;;4.47;2.53;;;18.00;73.80;;;;;;7356241;19;20379;-54
2022/05/19 00:48:17;;;;;;;2.37;2.17;;;17.80;74.60;;;;;;7365941;19;20375;-56
2022/05/19 00:50:51;;;;;;;5.13;2.80;;;17.90;74.40;;;;;;7370810;19;20818;-56
2022/05/19 00:53:32;;;;;;;4.27;2.10;;;17.80;74.20;;;;;;7369537;19;20894;-56
2022/05/19 00:56:07;;;;;;;2.70;2.33;;;17.90;73.90;;;;;;7373768;19;20496;-56
2022/05/19 00:58:41;;;;;;;3.00;2.00;;;18.00;73.60;;;;;;7370084;19;20375;-55
2022/05/19 01:01:14;;;;;;;4.60;2.53;;;17.90;73.80;;;;;;7362424;19;20364;-55
2022/05/19 01:03:55;;;;;;;5.87;2.60;;;17.80;73.90;;;;;;7378965;19;20404;-55
2022/05/19 01:06:30;;;;;;;2.60;1.97;;;17.90;74.00;;;;;;7371852;19;20439;-54
2022/05/19 01:09:05;;;;;;;5.73;2.23;;;17.80;73.50;;;;;;7368959;19;20380;-54
2022/05/19 01:11:36;;;;;;;2.70;2.30;;;17.90;73.60;;;;;;7366879;19;20376;-53
2022/05/19 01:14:08;;;;;;;2.13;1.90;;;18.20;72.70;;;;;;7366852;19;20480;-54
2022/05/19 01:16:43;;;;;;;3.37;2.00;;;18.20;72.00;;;;;;7374182;19;20455;-55
2022/05/19 01:19:24;;;;;;;3.23;2.43;;;18.10;72.10;;;;;;7365065;19;20384;-55
2022/05/19 01:22:00;;;;;;;4.53;2.33;;;17.80;73.20;;;;;;7371995;19;20396;-54
2022/05/19 01:24:39;;;;;;;4.30;2.43;;;17.80;73.70;;;;;;7373603;19;20376;-55
2022/05/19 01:27:11;;;;;;;2.53;2.33;;;17.60;75.00;;;;;;7372006;19;20412;-54
2022/05/19 01:29:44;;;;;;;2.53;2.20;;;17.50;74.90;;;;;;7371369;19;21069;-54
2022/05/19 01:32:26;;;;;;;2.83;2.20;;;17.80;75.10;;;;;;7375203;19;20455;-55
2022/05/19 01:35:00;;;;;;;2.33;2.13;;;17.60;74.70;;;;;;7370617;19;20401;-53
2022/05/19 01:37:29;;;;;;;3.23;2.40;;;17.90;73.30;;;;;;7368914;19;20364;-55
2022/05/19 01:40:17;;;;;;;2.30;2.03;;;17.90;73.90;;;;;;7372422;19;20820;-53
2022/05/19 01:42:59;;;;;;;4.27;2.50;;;17.90;73.00;;;;;;7367076;19;20388;-54
2022/05/19 01:45:46;;;;;;;2.87;2.37;;;18.00;72.70;;;;;;7373543;19;21020;-55
2022/05/19 01:48:23;;;;;;;4.07;2.57;;;17.80;72.60;;;;;;7363316;19;20798;-53
2022/05/19 01:51:04;;;;;;;2.67;2.47;;;17.80;73.00;;;;;;7360741;19;20376;-55
2022/05/19 01:53:42;;;;;;;2.83;2.63;;;17.80;72.80;;;;;;7367937;19;20408;-55
2022/05/19 01:56:20;;;;;;;2.63;2.23;;;17.50;73.60;;;;;;7367810;19;20384;-55
2022/05/19 01:59:02;;;;;;;3.33;2.33;;;17.30;74.10;;;;;;7368403;19;20372;-54
2022/05/19 02:01:32;;;;;;;3.17;2.50;;;17.30;74.60;;;;;;7370362;19;20913;-54
2022/05/19 02:04:15;;;;;;;2.53;2.33;;;17.20;75.10;;;;;;7368938;19;20372;-56
2022/05/19 02:06:49;;;;;;;3.63;2.37;;;17.30;74.60;;;;;;7364487;19;20371;-55
2022/05/19 02:09:26;;;;;;;2.83;2.20;;;17.40;74.50;;;;;;7365234;19;20376;-54
2022/05/19 02:12:01;;;;;;;2.80;2.10;;;17.30;75.80;;;;;;7371093;19;20929;-55
2022/05/19 02:14:36;;;;;;;5.10;2.70;;;17.40;74.30;;;;;;7370193;19;20376;-54
2022/05/19 02:17:12;;;;;;;2.20;2.00;;;17.70;74.00;;;;;;7378034;19;20901;-54
2022/05/19 02:19:48;;;;;;;3.13;2.23;;;17.70;73.00;;;;;;7372357;19;20393;-56
2022/05/19 02:22:25;;;;;;;2.90;2.33;;;17.60;73.70;;;;;;7363476;19;20391;-54
2022/05/19 02:25:01;;;;;;;3.10;2.40;;;17.70;73.30;;;;;;7367228;19;20427;-55
2022/05/19 02:27:42;;;;;;;3.60;2.53;;;17.10;75.10;;;;;;7381675;19;20368;-56
2022/05/19 02:30:21;;;;;;;3.20;2.30;;;17.10;76.30;;;;;;7374168;19;20867;-55
2022/05/19 02:32:53;;;;;;;2.40;2.13;;;17.00;76.50;;;;;;7377969;19;20371;-55
2022/05/19 02:35:28;;;;;;;2.83;2.60;;;17.10;75.90;;;;;;7374334;19;20482;-56
2022/05/19 02:37:58;;;;;;;2.67;2.47;;;17.10;75.90;;;;;;7380099;19;20371;-53
2022/05/19 02:40:31;;;;;;;4.37;2.70;;;17.10;75.40;;;;;;7367712;19;20393;-55
2022/05/19 02:43:04;;;;;;;3.13;2.63;;;17.00;75.20;;;;;;7375455;19;20733;-54
2022/05/19 02:45:39;;;;;;;3.93;2.00;;;17.00;76.30;;;;;;7376918;19;21384;-55
2022/05/19 02:48:12;;;;;;;3.53;2.90;;;16.80;76.70;;;;;;7377258;19;20364;-55
2022/05/19 02:50:42;;;;;;;4.77;2.17;;;16.80;77.00;;;;;;7351499;19;20418;-54
2022/05/19 02:53:17;;;;;;;3.30;2.50;;;16.90;76.50;;;;;;7376223;19;20372;-55
2022/05/19 02:55:49;;;;;;;3.00;2.10;;;16.80;76.90;;;;;;7372036;19;20380;-55
2022/05/19 02:58:24;;;;;;;3.20;2.90;;;16.80;76.40;;;;;;7357325;19;20902;-53
2022/05/19 03:00:57;;;;;;;4.00;2.20;;;16.80;76.70;;;;;;7373299;19;20391;-55
2022/05/19 03:03:26;;;;;;;2.77;2.50;;;16.80;77.30;;;;;;7375487;19;20950;-55
2022/05/19 03:05:56;;;;;;;5.13;2.83;;;16.70;76.60;;;;;;7372963;19;20411;-53
2022/05/19 03:08:31;;;;;;;2.77;2.57;;;16.50;77.70;;;;;;7373171;19;20402;-55
2022/05/19 03:11:00;;;;;;;2.90;2.63;;;16.60;78.50;;;;;;7373868;19;20380;-54
2022/05/19 03:13:32;;;;;;;2.63;2.43;;;16.80;76.90;;;;;;7363861;19;20420;-54
2022/05/19 03:16:08;;;;;;;4.30;2.17;;;16.70;76.20;;;;;;7378822;19;20376;-54
2022/05/19 03:18:41;;;;;;;2.97;2.67;;;16.60;77.50;;;;;;7372067;19;20921;-54
2022/05/19 03:21:22;;;;;;;8.93;2.50;;;16.50;79.00;;;;;;7377425;19;20384;-54
2022/05/19 03:23:51;;;;;;;2.80;2.37;;;16.60;78.30;;;;;;7372885;19;20928;-54
2022/05/19 03:26:20;;;;;;;2.93;2.53;;;16.70;76.60;;;;;;7372767;19;20380;-54
2022/05/19 03:28:51;;;;;;;4.43;1.97;;;16.60;76.60;;;;;;7373952;19;20372;-54
2022/05/19 03:31:23;;;;;;;4.80;2.00;;;16.40;78.40;;;;;;7377903;19;20393;-53
2022/05/19 03:33:55;;;;;;;3.07;2.30;;;16.30;77.80;;;;;;7363438;19;20450;-54
2022/05/19 03:36:25;;;;;;;3.03;2.43;;;16.30;77.70;;;;;;7369561;19;21012;-53
2022/05/19 03:38:57;;;;;;;3.70;2.77;;;16.40;78.70;;;;;;7377305;19;20389;-54
2022/05/19 03:41:26;;;;;;;4.20;2.47;;;16.20;80.00;;;;;;7367682;19;20953;-53
2022/05/19 03:43:56;;;;;;;2.90;2.60;;;16.30;78.00;;;;;;7373300;19;20380;-53
2022/05/19 03:46:28;;;;;;;2.80;2.40;;;16.50;77.50;;;;;;7373071;19;20368;-55
2022/05/19 03:49:00;;;;;;;2.50;2.30;;;16.40;76.40;;;;;;7370658;19;20794;-55
2022/05/19 03:51:32;;;;;;;2.73;2.40;;;16.40;78.00;;;;;;7372786;19;20383;-53
2022/05/19 03:54:02;;;;;;;3.87;2.80;;;16.30;78.10;;;;;;7369171;19;20375;-53
2022/05/19 03:56:35;;;;;;;2.70;2.50;;;16.30;77.80;;;;;;7365975;19;20384;-55
2022/05/19 03:59:05;;;;;;;3.50;2.37;;;16.40;76.90;;;;;;7376175;19;20921;-54
2022/05/19 04:01:40;;;;;;;2.63;2.20;;;16.60;76.40;;;;;;7370798;19;20444;-55
2022/05/19 04:04:12;;;;;;;3.03;2.60;;;16.50;76.60;;;;;;7368431;19;20376;-55
2022/05/19 04:06:44;;;;;;;3.30;2.50;;;16.60;77.00;;;;;;7373630;19;20460;-53
2022/05/19 04:09:13;;;;;;;3.07;2.73;;;16.60;76.10;;;;;;7371307;19;20380;-55
2022/05/19 04:11:43;;;;;;;3.50;2.43;;;16.60;76.30;;;;;;7367881;19;20737;-55
2022/05/19 04:14:15;;;;;;;5.10;2.53;;;16.70;75.90;;;;;;7365609;19;20448;-55
2022/05/19 04:16:52;;;;;;;6.03;3.50;;;16.90;75.60;;;;;;7367691;19;20453;-54
2022/05/19 04:19:22;;;;;;;5.80;3.77;;;16.90;74.90;;;;;;7369543;19;20796;-55
2022/05/19 04:21:52;;;;;;;5.47;3.53;;;16.80;75.80;;;;;;7373172;19;20419;-55
2022/05/19 04:24:22;;;;;;;4.00;3.53;;;16.80;75.80;;;;;;7365484;19;20376;-54
2022/05/19 04:26:51;;;;;;;4.77;3.57;;;17.00;75.20;;;;;;7372378;19;20376;-55
2022/05/19 04:29:21;;;;;;;7.03;3.67;;;17.00;74.50;;;;;;7359389;19;21164;-55
2022/05/19 04:31:53;;;;;;;7.13;4.70;;;16.90;74.80;;;;;;7366151;19;20448;-55
2022/05/19 04:34:25;;;;;;;3.90;3.10;;;16.60;77.20;;;;;;7369404;19;20372;-53
2022/05/19 04:36:57;;;;;;;3.37;3.07;;;16.40;77.30;;;;;;7354801;19;20767;-54
2022/05/19 04:39:27;;;;;;;5.87;4.10;;;16.30;78.00;;;;;;7372097;19;20395;-54
2022/05/19 04:41:56;;;;;;;3.30;2.93;;;16.40;78.30;;;;;;7367922;19;21027;-54
2022/05/19 04:44:25;;;;;;;4.10;3.20;;;16.40;79.20;;;;;;7368260;19;20423;-53
2022/05/19 04:46:58;;;;;;;4.50;3.13;;;16.30;80.00;;;;;;7362470;19;21020;-54
2022/05/19 04:49:30;;;;;;;3.33;3.03;;;16.70;79.10;;;;;;7353852;19;20713;-54
2022/05/19 04:52:02;;;;;;;7.73;3.40;;;16.60;79.20;;;;;;7363629;19;20812;-55
2022/05/19 04:54:32;;;;;;;3.10;2.77;;;16.70;79.70;;;;;;7349915;19;20372;-55
2022/05/19 04:57:04;;;;;;;2.90;2.57;;;16.90;79.10;;;;;;7359742;19;20492;-55
2022/05/19 04:59:34;;;;;;;3.63;3.03;;;16.90;78.30;;;;;;7372268;19;20833;-54
2022/05/19 05:02:07;;;;;;;3.50;2.60;;;17.10;78.20;;;;;;7360639;19;20484;-55
2022/05/19 05:04:36;;;;;;;2.90;2.70;;;17.30;76.40;;;;;;7356763;19;20392;-54
2022/05/19 05:07:07;;;;;;;2.80;2.60;;;17.20;76.90;;;;;;7364310;19;20387;-53
2022/05/19 05:09:37;;;;;;;4.73;2.90;;;17.60;76.20;;;;;;7370619;19;20379;-53
2022/05/19 05:12:10;;;;;;;4.90;2.53;;;17.80;75.50;;;;;;7370016;19;20372;-53
2022/05/19 05:14:42;;;;;;;6.37;2.50;;;17.90;71.90;;;;;;7369395;19;20455;-54
2022/05/19 05:17:14;;;;;;;8.00;3.50;;;17.70;70.50;;;;;;7373568;19;20380;-54
2022/05/19 05:19:44;;;;;;;5.67;2.77;;;17.60;70.30;;;;;;7369887;19;20784;-53
2022/05/19 05:22:16;;;;;;;4.13;2.80;;;17.60;69.50;;;;;;7364170;19;20392;-54
2022/05/19 05:24:46;;;;;;;3.27;2.60;;;17.70;69.50;;;;;;7367289;19;20397;-55
2022/05/19 05:27:17;;;;;;;2.37;2.17;;;18.00;68.20;;;;;;7372310;19;20404;-54
2022/05/19 05:29:51;;;;;;;6.03;2.70;;;18.10;67.40;;;;;;7365771;19;20951;-54
2022/05/19 05:32:23;;;;;;;2.77;2.43;;;18.10;67.90;;;;;;7353675;19;20383;-54
2022/05/19 05:34:52;;;;;;;3.50;2.67;;;18.30;68.30;;;;;;7356488;19;20419;-54
2022/05/19 05:37:24;;;;;;;4.40;3.20;;;18.70;66.60;;;;;;7365451;19;20360;-53
2022/05/19 05:39:56;;;;;;;4.40;3.00;;;18.90;65.50;;;;;;7363810;19;20371;-53
2022/05/19 05:42:26;;;;;;;5.77;2.93;;;19.10;64.50;;;;;;7360240;19;20393;-54
2022/05/19 05:44:56;;;;;;;3.17;2.40;;;19.40;63.80;;;;;;7356595;19;20379;-54
2022/05/19 05:47:31;;;;;;;4.00;2.70;;;19.20;63.40;;;;;;7368961;19;20989;-54
2022/05/19 05:50:00;;;;;;;3.50;2.43;;;19.00;63.80;;;;;;7365960;19;20435;-54
2022/05/19 05:52:32;;;;;;;3.80;2.50;;;18.90;65.10;;;;;;7370455;19;20387;-54
2022/05/19 05:55:02;;;;;;;4.20;3.20;;;19.20;64.50;;;;;;7367533;19;20372;-54
2022/05/19 05:57:31;;;;;;;3.47;3.00;;;19.60;64.50;;;;;;7371613;19;20380;-54
2022/05/19 06:00:04;;;;;;;4.37;3.00;;;19.40;63.50;;;;;;7371729;19;21051;-54
2022/05/19 06:02:44;;;;;;;3.20;2.80;;;19.40;63.10;;;;;;7368922;19;20496;-54
2022/05/19 06:05:14;;;;;;;3.73;2.67;;;19.40;63.90;;;;;;7368728;19;20391;-54
2022/05/19 06:07:44;;;;;;;4.23;2.90;;;19.20;65.00;;;;;;7366686;19;21118;-54
2022/05/19 06:10:15;;;;;;;2.90;2.67;;;19.30;65.10;;;;;;7374824;19;20371;-54
2022/05/19 06:12:45;;;;;;;3.27;2.70;;;19.70;64.30;;;;;;7365893;19;20372;-53
2022/05/19 06:15:17;;;;;;;3.60;2.40;;;20.00;63.40;;;;;;7363514;19;20368;-54
2022/05/19 06:17:49;;;;;;;5.90;3.40;;;20.30;62.70;;;;;;7365684;19;20416;-54
2022/05/19 06:20:20;;;;;;;2.93;2.53;;;20.60;61.30;;;;;;7374047;19;20927;-53
2022/05/19 06:22:50;;;;;;;2.90;2.70;;;;;;;;;;7369975;19;20913;-54
2022/05/19 06:25:22;;;;;;;5.27;2.83;;;21.20;78.90;;;;;;7368548;19;20368;-53
2022/05/19 06:27:52;;;;;;;2.83;2.17;;;21.40;63.90;;;;;;7361364;19;20376;-53
2022/05/19 06:30:23;;;;;;;3.30;2.70;;;21.30;59.90;;;;;;7367576;19;20383;-54
2022/05/19 06:32:55;;;;;;;5.33;3.70;;;21.50;60.00;;;;;;7369190;19;20388;-53
2022/05/19 06:35:32;;;;;;;3.37;2.30;;;21.70;61.30;;;;;;7367947;19;20997;-54
2022/05/19 06:38:07;;;;;;;7.13;3.03;;;22.00;57.10;;;;;;7370556;19;20371;-54
2022/05/19 06:40:37;;;;;;;4.53;3.23;;;22.30;57.30;;;;;;7371755;19;20447;-53
2022/05/19 06:43:13;;;;;;;4.27;2.97;;;22.40;55.90;;;;;;7365736;19;20368;-53
2022/05/19 06:45:47;;;;;;;4.30;2.90;;;22.60;56.20;;;;;;7375604;19;20367;-54
2022/05/19 06:48:19;;;;;;;4.97;4.57;;;22.60;56.90;;;;;;7361191;19;20417;-54
2022/05/19 06:50:51;;;;;;;4.20;2.63;;;22.80;57.70;;;;;;7364656;19;20668;-54
2022/05/19 06:53:20;;;;;;;3.90;2.50;;;22.90;60.20;;;;;;7369802;19;20843;-53
2022/05/19 06:55:50;;;;;;;4.43;3.43;;;22.60;64.80;;;;;;7368202;19;20389;-54
2022/05/19 06:58:20;;;;;;;5.37;3.13;;;22.80;66.80;;;;;;7367509;19;20976;-56
2022/05/19 07:00:50;;;;;;;4.17;3.00;;;23.00;64.50;;;;;;7377591;19;20419;-53
2022/05/19 07:03:22;;;;;;;10.60;2.93;;;22.90;63.80;;;;;;7369371;19;20411;-55
2022/05/19 07:05:52;;;;;;;4.33;2.83;;;23.00;63.50;;;;;;7375687;19;20464;-53
2022/05/19 07:08:23;;;;;;;4.00;2.87;;;23.10;62.30;;;;;;7374150;19;21557;-53
2022/05/19 07:10:56;;;;;;;4.30;2.43;;;23.30;62.70;;;;;;7378068;19;20484;-53
2022/05/19 07:13:26;;;;;;;3.20;2.70;;;23.50;60.00;;;;;;7372320;19;20368;-53
2022/05/19 07:15:59;;;;;;;3.40;2.90;;;23.10;59.80;;;;;;7374425;19;20384;-53
2022/05/19 07:18:31;;;;;;;5.03;2.47;;;23.10;58.60;;;;;;7375922;19;20374;-53
2022/05/19 07:20:58;;;;;;;2.93;2.57;;;23.00;60.60;;;;;;7377474;19;20395;-53
2022/05/19 07:23:30;;;;;;;3.60;2.70;;;23.20;59.80;;;;;;7371640;19;20380;-53
2022/05/19 07:26:04;;;;;;;3.73;2.70;;;23.50;58.70;;;;;;7378973;19;20497;-53
2022/05/19 07:28:35;;;;;;;3.87;3.03;;;23.70;59.30;;;;;;7357637;19;20383;-53
2022/05/19 07:31:05;;;;;;;4.40;3.07;;;23.90;58.10;;;;;;7378135;19;20828;-57
2022/05/19 07:33:41;;;;;;;9.10;2.80;;;23.70;56.50;;;;;;7368162;19;20380;-56
2022/05/19 07:36:12;;;;;;;6.23;3.10;;;23.70;57.30;;;;;;7380633;19;20368;-55
2022/05/19 07:38:45;;;;;;;4.53;3.40;;;23.80;57.80;;;;;;7370983;19;20370;-56
2022/05/19 07:41:15;;;;;;;3.63;2.50;;;24.00;56.90;;;;;;7375409;19;20381;-57
2022/05/19 07:43:47;;;;;;;4.93;2.70;;;24.10;56.80;;;;;;7371233;19;20480;-56
2022/05/19 07:46:16;;;;;;;4.77;2.53;;;24.30;56.60;;;;;;7367519;19;20435;-55
2022/05/19 07:48:53;;;;;;;3.83;3.10;;;24.50;55.80;;;;;;7371765;19;20416;-57
2022/05/19 07:51:26;;;;;;;3.97;2.97;;;24.80;56.40;;;;;;7375616;19;20455;-55
2022/05/19 07:53:57;;;;;;;3.90;2.80;;;25.10;56.10;;;;;;7375283;19;20818;-55
2022/05/19 07:56:26;;;;;;;3.07;2.60;;;25.00;55.10;;;;;;7366065;19;20373;-55
2022/05/19 07:58:56;;;;;;;4.13;3.40;;;26.00;54.10;;;;;;7371034;19;20413;-56
2022/05/19 08:01:29;;;;;;;2.67;2.47;;;25.40;53.60;;;;;;7372520;19;20788;-54
2022/05/19 08:04:02;;;;;;;4.33;3.17;;;25.50;53.30;;;;;;7370440;19;20900;-55
2022/05/19 08:06:33;;;;;;;2.57;2.37;;;25.60;52.90;;;;;;7372280;19;20376;-56
2022/05/19 08:10:20;;;;;;;4.57;3.00;;;25.70;53.10;;;;;;7375697;19;20990;-59
2022/05/19 08:11:55;;;;;;;2.97;2.63;;;26.00;48.20;;;;;;7371878;19;20379;-59
2022/05/19 08:17:11;;;;;;;3.70;2.70;;;26.20;48.90;;;;;;7374648;19;20378;-58
2022/05/19 08:19:43;;;;;;;3.67;2.97;;;26.50;49.20;;;;;;7377210;19;20395;-59
2022/05/19 08:22:15;;;;;;;3.43;2.90;;;26.60;49.10;;;;;;7366156;19;20383;-61
2022/05/19 08:24:49;;;;;;;3.30;3.10;;;26.80;51.10;;;;;;7367124;19;20376;-60
2022/05/19 08:27:19;;;;;;;3.67;2.90;;;26.50;51.80;;;;;;7375192;19;20415;-59
2022/05/19 08:29:51;;;;;;;3.17;2.87;;;26.80;53.00;;;;;;7373922;19;20785;-59
2022/05/19 08:32:21;;;;;;;2.80;2.60;;;27.00;62.60;;;;;;7369608;19;20384;-60
2022/05/19 08:34:54;;;;;;;3.17;2.87;;;27.10;62.20;;;;;;7364809;19;20479;-60
2022/05/19 08:37:23;;;;;;;2.90;2.70;;;27.40;62.10;;;;;;7371156;19;20376;-60
2022/05/19 08:39:53;;;;;;;3.20;2.80;;;27.60;63.30;;;;;;7369027;19;20475;-60
2022/05/19 08:42:24;;;;;;;2.43;2.23;;;27.80;49.20;;;;;;7372387;19;20380;-59
2022/05/19 08:44:57;;;;;;;3.43;3.13;;;28.00;47.20;;;;;;7370528;19;20392;-60
2022/05/19 08:47:37;;;;;;;3.90;2.60;;;28.20;45.40;;;;;;7373996;19;20376;-58
2022/05/19 08:50:21;;;;;;;3.00;2.80;;;28.50;44.60;;;;;;7358877;19;20429;-59
2022/05/19 08:52:54;;;;;;;5.37;2.80;;;28.70;44.20;;;;;;7374893;19;21378;-59
2022/05/19 08:55:29;;;;;;;5.20;3.00;;;28.80;43.80;;;;;;7369192;19;20942;-59
2022/05/19 08:58:09;;;;;;;4.40;3.10;;;28.70;42.80;;;;;;7366154;19;20768;-59
2022/05/19 09:00:43;;;;;;;7.50;3.10;;;29.00;44.00;;;;;;7366969;19;20391;-60
2022/05/19 09:03:21;;;;;;;2.80;2.50;;;29.20;43.20;;;;;;7374235;19;20413;-59
2022/05/19 09:06:21;;;;;;;4.33;3.93;;;29.60;42.10;;;;;;7357852;19;20395;-59
2022/05/19 09:09:08;;;;;;;4.03;3.10;;;29.80;41.90;;;;;;7371154;19;20721;-60
2022/05/19 09:11:41;;;;;;;3.03;2.73;;;;;;;;;;7362188;19;20769;-60
2022/05/19 09:14:22;;;;;;;6.03;2.90;;;;;;;;;;7370015;19;21201;-63
2022/05/19 09:16:56;;;;;;;2.70;2.37;;;30.40;40.10;;;;;;7370174;19;21300;-65
2022/05/19 09:19:36;;;;;;;5.07;3.00;;;30.60;40.30;;;;;;7372130;19;20813;-65
2022/05/19 09:22:14;;;;;;;3.07;2.67;;;31.00;39.00;;;;;;7374211;19;20913;-64
2022/05/19 09:24:49;;;;;;;3.20;2.60;;;31.30;38.80;;;;;;7370265;19;20390;-66
2022/05/19 09:27:22;;;;;;;4.73;2.20;;;31.40;37.90;;;;;;7365160;19;20401;-65
2022/05/19 09:29:56;;;;;;;2.83;2.53;;;31.40;37.70;;;;;;7371622;19;20725;-65
2022/05/19 09:32:34;;;;;;;2.53;2.33;;;31.40;37.90;;;;;;7370532;19;20384;-65
2022/05/19 09:35:11;;;;;;;3.30;3.00;;;31.60;37.80;;;;;;7366958;19;20838;-66
2022/05/19 09:37:46;;;;;;;2.70;2.40;;;32.30;37.00;;;;;;7362198;19;20402;-67
2022/05/19 09:40:24;;;;;;;2.83;2.63;;;32.90;35.80;;;;;;7368380;19;20409;-60
2022/05/19 09:42:58;;;;;;;4.57;3.30;;;33.00;35.80;;;;;;7370343;19;21011;-61
2022/05/19 09:45:30;;;;;;;4.27;3.83;;;33.40;37.20;;;;;;7371280;19;20383;-61
2022/05/19 09:48:06;;;;;;;7.63;2.70;;;33.70;34.50;;;;;;7366433;19;20719;-61
2022/05/19 09:50:44;;;;;;;4.47;2.90;;;34.00;34.00;;;;;;7369361;19;20364;-60
2022/05/19 09:53:25;;;;;;;5.70;2.47;;;34.20;33.60;;;;;;7371539;19;21383;-60
2022/05/19 09:55:58;;;;;;;5.73;3.17;;;34.70;32.90;;;;;;7370325;19;20942;-60
2022/05/19 09:58:31;;;;;;;2.50;2.30;;;35.00;34.60;;;;;;7369827;19;20387;-61
2022/05/19 10:01:07;;;;;;;2.77;2.20;;;35.40;33.20;;;;;;7370824;19;20763;-60
2022/05/19 10:03:40;;;;;;;4.40;3.10;;;36.00;31.80;;;;;;7359539;19;20783;-60
2022/05/19 10:06:20;;;;;;;6.23;2.90;;;35.90;32.70;;;;;;7367272;19;20424;-60
2022/05/19 10:09:02;;;;;;;4.87;2.80;;;35.90;34.10;;;;;;7364740;19;20372;-61
2022/05/19 10:11:33;;;;;;;2.80;2.60;;;36.40;32.70;;;;;;7367384;19;20391;-60
2022/05/19 10:14:10;;;;;;;7.87;3.07;;;37.20;30.60;;;;;;7372015;19;20946;-60
2022/05/19 10:16:53;;;;;;;7.03;2.90;;;37.70;29.60;;;;;;7355273;19;20403;-60
2022/05/19 10:19:39;;;;;;;2.90;2.60;;;38.20;29.40;;;;;;7364721;19;20384;-61
2022/05/19 10:22:35;;;;;;;3.07;2.77;;;38.60;29.50;;;;;;7364133;19;20471;-60
2022/05/19 10:25:26;;;;;;;3.10;2.77;;;38.60;28.80;;;;;;7354519;19;20372;-61
2022/05/19 10:31:06;;;;;;;3.33;2.77;;;38.80;28.60;;;;;;7362284;19;20409;-60
2022/05/19 10:34:22;;;;;;;5.60;3.23;;;38.30;30.00;;;;;;7369828;19;20727;-60
2022/05/19 10:37:01;;;;;;;3.47;3.00;;;37.80;30.70;;;;;;7380115;19;20455;-60
2022/05/19 10:39:47;;;;;;;4.03;3.07;;;38.00;29.80;;;;;;7375957;19;20390;-60
2022/05/19 10:42:27;;;;;;;3.97;2.90;;;37.10;30.90;;;;;;7377298;19;20770;-60
2022/05/19 10:45:13;;;;;;;4.83;3.43;;;37.20;31.20;;;;;;7377528;19;20466;-60
2022/05/19 10:47:52;;;;;;;3.43;3.13;;;37.40;31.10;;;;;;7371013;19;20389;-60
2022/05/19 10:50:31;;;;;;;4.10;3.10;;;37.60;30.40;;;;;;7375099;19;20921;-65
2022/05/19 10:53:30;;;;;;;3.00;2.73;;;37.60;30.10;;;;;;7377148;19;20371;-65
2022/05/19 10:56:20;;;;;;;2.93;2.63;;;37.90;29.60;;;;;;7377958;19;20407;-66
2022/05/19 10:59:09;;;;;;;4.90;3.10;;;38.20;29.20;;;;;;7376500;19;20368;-65
2022/05/19 11:01:49;;;;;;;3.37;2.93;;;38.10;29.80;;;;;;7381207;19;20376;-65
2022/05/19 11:04:41;;;;;;;2.90;2.70;;;37.30;30.60;;;;;;7380297;19;20953;-65
2022/05/19 11:07:32;;;;;;;3.20;2.90;;;37.80;29.80;;;;;;7376941;19;20462;-66
2022/05/19 11:10:18;;;;;;;3.53;2.47;;;38.60;28.70;;;;;;7378193;19;20448;-65
2022/05/19 11:12:56;;;;;;;4.30;3.30;;;38.90;28.10;;;;;;7377925;19;20376;-66
2022/05/19 11:15:36;;;;;;;2.93;2.53;;;39.50;27.70;;;;;;7378874;19;20387;-66
2022/05/19 11:18:13;;;;;;;3.60;3.27;;;39.70;27.20;;;;;;7375178;19;20969;-65
2022/05/19 11:20:59;;;;;;;3.73;3.20;;;40.00;27.40;;;;;;7378868;19;20376;-66
2022/05/19 11:23:35;;;;;;;3.30;2.83;;;40.30;27.10;;;;;;7369498;19;20375;-66
2022/05/19 11:28:58;;;;;;;3.43;2.97;;;40.70;26.50;;;;;;7379274;19;20452;-66
2022/05/19 11:31:35;;;;;;;4.20;3.03;;;40.70;26.30;;;;;;7375494;19;20375;-66
2022/05/19 11:34:16;;;;;;;3.83;3.43;;;40.10;27.40;;;;;;7378765;19;20379;-66
2022/05/19 11:36:54;;;;;;;5.77;3.00;;;39.30;28.00;;;;;;7373877;19;20368;-66
2022/05/19 11:39:31;;;;;;;3.47;3.17;;;38.70;28.60;;;;;;7377266;19;20379;-65
2022/05/19 11:42:18;;;;;;;3.27;2.93;;;38.90;28.40;;;;;;7377722;19;20382;-65
2022/05/19 11:44:51;;;;;;;3.00;2.70;;;39.30;27.90;;;;;;7372184;19;20438;-66
2022/05/19 11:55:52;;;;;;;5.37;3.10;;;39.40;28.00;;;;;;7374708;19;20376;-61
2022/05/19 11:58:26;;;;;;;3.20;2.90;;;39.20;28.00;;;;;;7349561;19;20377;-61
2022/05/19 12:01:00;;;;;;;3.40;3.10;;;39.60;27.30;;;;;;7350786;19;20371;-44
2022/05/19 12:03:42;;;;;;;3.53;3.23;;;39.90;27.80;;;;;;7360495;19;20468;-48
2022/05/19 12:06:21;;;;;;;4.20;3.77;;;40.00;27.40;;;;;;7331513;19;20508;-49
2022/05/19 12:09:00;;;;;;;6.23;4.60;;;40.00;27.40;;;;;;7356402;19;20374;-43
2022/05/19 12:11:33;;;;;;;5.03;3.67;;;40.10;27.30;;;;;;7339940;19;20447;-43
2022/05/19 12:14:19;;;;;;;6.57;4.73;;;40.50;26.90;;;;;;7350574;19;20932;-43
2022/05/19 12:16:56;;;;;;;3.13;2.77;;;41.40;26.70;;;;;;7362118;19;20384;-42
2022/05/19 12:19:38;;;;;;;9.17;8.37;;;40.90;26.80;;;;;;7344288;19;20411;-48
2022/05/19 12:22:09;;;;;;;5.77;3.90;;;40.30;27.50;;;;;;7314779;19;20388;-48
2022/05/19 12:24:40;;;;;;;4.43;3.27;;;39.90;27.80;;;;;;7346149;19;20368;-49
2022/05/19 12:27:16;;;;;;;4.03;3.43;;;39.40;28.90;;;;;;7337607;19;20939;-48
2022/05/19 12:30:00;;;;;;;7.47;5.73;;;38.70;29.50;;;;;;7356248;19;20380;-49
2022/05/19 12:32:33;;;;;;;4.93;4.43;;;38.90;29.00;;;;;;7351969;19;21146;-48
2022/05/19 12:35:16;;;;;;;6.10;4.87;;;39.30;28.50;;;;;;7346593;19;20391;-49
2022/05/19 12:37:48;;;;;;;8.30;6.00;;;39.10;28.50;;;;;;7365346;19;20818;-48
2022/05/19 12:40:30;;;;;;;3.90;3.60;;;38.80;28.90;;;;;;7355751;19;20721;-48
2022/05/19 12:43:37;;;;;;;5.30;4.80;;;37.80;30.10;;;;;;7375579;19;20360;-48
2022/05/19 12:46:12;;;;;;;3.93;3.00;;;37.20;30.50;;;;;;7363186;19;20430;-48
2022/05/19 12:49:19;;;;;;;4.00;3.50;;;37.30;31.10;;;;;;7358145;19;20428;-48
2022/05/19 12:52:02;;;;;;;5.80;4.10;;;37.10;30.70;;;;;;7358453;19;20372;-42
2022/05/19 12:54:36;;;;;;;4.07;3.67;;;36.80;31.00;;;;;;7370824;19;20380;-42
2022/05/19 12:57:32;;;;;;;4.10;3.70;;;36.50;31.00;;;;;;7353822;19;20372;-42
2022/05/19 13:00:23;;;;;;;5.17;3.20;;;36.90;30.70;;;;;;7374191;19;20403;-42
2022/05/19 13:03:04;;;;;;;4.57;4.17;;;37.60;29.90;;;;;;7371167;19;20404;-42
2022/05/19 13:05:37;;;;;;;4.90;4.50;;;38.30;29.70;;;;;;7358528;19;20380;-42
2022/05/19 13:08:15;;;;;;;6.20;4.23;;;38.70;29.40;;;;;;7360203;19;20375;-42
2022/05/19 13:10:52;;;;;;;6.43;4.10;;;38.90;29.00;;;;;;7353187;19;20376;-42
2022/05/19 13:13:29;;;;;;;3.87;3.40;;;39.20;28.40;;;;;;7360326;19;20431;-42
2022/05/19 13:16:02;;;;;;;4.80;4.17;;;39.10;28.60;;;;;;7360250;19;20376;-42
2022/05/19 13:18:38;;;;;;;4.27;3.87;;;38.60;28.90;;;;;;7338781;19;20443;-42
2022/05/19 13:21:13;;;;;;;4.23;3.83;;;38.10;29.60;;;;;;7356223;19;20900;-42
2022/05/19 13:23:49;;;;;;;5.30;3.77;;;37.80;29.80;;;;;;7368809;19;20738;-42
2022/05/19 13:26:25;;;;;;;6.03;3.43;;;37.60;30.20;;;;;;7367996;19;20836;-42
2022/05/19 13:31:53;;;;;;;4.10;3.67;;;37.20;30.40;;;;;;7372117;19;20472;-41
2022/05/19 13:34:23;;;;;;;4.43;3.90;;;37.20;30.70;;;;;;7361503;19;20365;-42
2022/05/19 13:36:59;;;;;;;4.40;3.90;;;36.90;31.90;;;;;;7359513;19;20373;-41
2022/05/19 13:39:31;;;;;;;4.90;3.47;;;36.80;31.00;;;;;;7361911;19;20376;-42
2022/05/19 13:42:09;;;;;;;11.17;4.43;;;36.30;31.90;;;;;;7366092;19;20750;-42
2022/05/19 13:44:48;;;;;;;3.70;3.40;;;36.10;32.40;;;;;;7362398;19;20930;-42
2022/05/19 13:47:21;;;;;;;6.93;3.63;;;35.90;33.00;;;;;;7368535;19;20412;-42